DAL2947 KPDX-KLAX
Flight info
| Callsign | DAL2947 |
|---|---|
| Flight time | 1h 57m |
| Altitude | 37000 |
| Route | HRMNS6 HYJOE JAGWA BURGL IRNMN2 |
| Aircraft | A320/M-SDE3FGHIRWY/LB1 |
Departure
| Time | 2026-04-25 01:29 |
|---|---|
| Airport | Portland International Airport (KPDX) |
Arrival
| Time | 2026-04-25 03:26 |
|---|---|
| Airport | Los Angeles International Airport (KLAX) |
| Time | Latitude | Longitude | Altitude | Speed | Heading |
|---|---|---|---|---|---|
| 2026-04-25 00:39 | 45.59212 | -122.59647 | 31 ft | 0 kts | 198° |
| 2026-04-25 01:18 | 45.59218 | -122.59644 | 30 ft | 3 kts | 198° |
| 2026-04-25 01:18 | 45.59237 | -122.59635 | 30 ft | 3 kts | 196° |
| 2026-04-25 01:18 | 45.59257 | -122.59628 | 30 ft | 3 kts | 191° |
| 2026-04-25 01:18 | 45.59276 | -122.59624 | 29 ft | 3 kts | 178° |
| 2026-04-25 01:19 | 45.59294 | -122.59628 | 29 ft | 3 kts | 140° |
| 2026-04-25 01:19 | 45.59300 | -122.59636 | 29 ft | 0 kts | 119° |
| 2026-04-25 01:23 | 45.59292 | -122.59615 | 29 ft | 5 kts | 119° |
| 2026-04-25 01:23 | 45.59280 | -122.59585 | 29 ft | 3 kts | 119° |
| 2026-04-25 01:23 | 45.59256 | -122.59521 | 30 ft | 8 kts | 119° |
| 2026-04-25 01:23 | 45.59222 | -122.59431 | 30 ft | 19 kts | 111° |
| 2026-04-25 01:24 | 45.59209 | -122.59227 | 35 ft | 20 kts | 96° |
| 2026-04-25 01:24 | 45.59157 | -122.59048 | 37 ft | 20 kts | 119° |
| 2026-04-25 01:24 | 45.59087 | -122.58870 | 36 ft | 21 kts | 119° |
| 2026-04-25 01:24 | 45.59010 | -122.58670 | 31 ft | 25 kts | 119° |
| 2026-04-25 01:25 | 45.58931 | -122.58465 | 31 ft | 10 kts | 119° |
| 2026-04-25 01:25 | 45.58898 | -122.58380 | 32 ft | 9 kts | 119° |
| 2026-04-25 01:25 | 45.58871 | -122.58311 | 33 ft | 7 kts | 119° |
| 2026-04-25 01:25 | 45.58818 | -122.58173 | 35 ft | 20 kts | 119° |
| 2026-04-25 01:26 | 45.58746 | -122.57993 | 36 ft | 21 kts | 120° |
| 2026-04-25 01:26 | 45.58671 | -122.57808 | 37 ft | 22 kts | 119° |
| 2026-04-25 01:26 | 45.58605 | -122.57636 | 33 ft | 21 kts | 118° |
| 2026-04-25 01:26 | 45.58530 | -122.57443 | 29 ft | 24 kts | 119° |
| 2026-04-25 01:27 | 45.58446 | -122.57224 | 31 ft | 25 kts | 118° |
| 2026-04-25 01:27 | 45.58368 | -122.57025 | 32 ft | 21 kts | 119° |
| 2026-04-25 01:27 | 45.58297 | -122.56843 | 34 ft | 21 kts | 119° |
| 2026-04-25 01:28 | 45.58386 | -122.56759 | 32 ft | 0 kts | 298° |
| 2026-04-25 01:28 | 45.58479 | -122.56994 | 29 ft | 71 kts | 300° |
| 2026-04-25 01:28 | 45.58856 | -122.57966 | 35 ft | 149 kts | 299° |
| 2026-04-25 01:29 | 45.59464 | -122.59471 | 309 ft | 186 kts | 301° |
| 2026-04-25 01:29 | 45.60057 | -122.61115 | 1260 ft | 189 kts | 297° |
| 2026-04-25 01:29 | 45.60622 | -122.62786 | 2236 ft | 185 kts | 297° |
| 2026-04-25 01:29 | 45.61176 | -122.64407 | 3102 ft | 174 kts | 297° |
| 2026-04-25 01:30 | 45.61566 | -122.66055 | 3615 ft | 183 kts | 285° |
| 2026-04-25 01:30 | 45.62030 | -122.67871 | 3851 ft | 207 kts | 297° |
| 2026-04-25 01:30 | 45.62779 | -122.69756 | 4170 ft | 230 kts | 301° |
| 2026-04-25 01:30 | 45.63627 | -122.71840 | 4554 ft | 254 kts | 301° |
| 2026-04-25 01:31 | 45.64535 | -122.74083 | 5194 ft | 265 kts | 301° |
| 2026-04-25 01:31 | 45.65466 | -122.76389 | 6011 ft | 270 kts | 301° |
| 2026-04-25 01:31 | 45.66363 | -122.78760 | 6846 ft | 274 kts | 293° |
| 2026-04-25 01:31 | 45.66848 | -122.81418 | 7660 ft | 280 kts | 277° |
| 2026-04-25 01:32 | 45.66779 | -122.84210 | 8463 ft | 285 kts | 259° |
| 2026-04-25 01:32 | 45.66240 | -122.86929 | 9245 ft | 290 kts | 253° |
| 2026-04-25 01:32 | 45.65392 | -122.89606 | 10029 ft | 296 kts | 234° |
| 2026-04-25 01:32 | 45.63853 | -122.91512 | 10746 ft | 303 kts | 208° |
| 2026-04-25 01:33 | 45.61771 | -122.92307 | 11115 ft | 324 kts | 180° |
| 2026-04-25 01:33 | 45.59449 | -122.91738 | 11323 ft | 347 kts | 165° |
| 2026-04-25 01:33 | 45.57084 | -122.90778 | 11602 ft | 365 kts | 163° |
| 2026-04-25 01:33 | 45.54644 | -122.89624 | 12183 ft | 372 kts | 156° |
| 2026-04-25 01:34 | 45.52360 | -122.87832 | 12801 ft | 377 kts | 146° |
| 2026-04-25 01:34 | 45.50130 | -122.85807 | 13423 ft | 382 kts | 147° |
| 2026-04-25 01:34 | 45.47849 | -122.83810 | 14045 ft | 387 kts | 148° |
| 2026-04-25 01:34 | 45.45520 | -122.81817 | 14642 ft | 392 kts | 148° |
| 2026-04-25 01:35 | 45.43164 | -122.79825 | 14933 ft | 396 kts | 148° |
| 2026-04-25 01:35 | 45.40781 | -122.77816 | 15006 ft | 398 kts | 148° |
| 2026-04-25 01:35 | 45.38389 | -122.75794 | 15010 ft | 398 kts | 148° |
| 2026-04-25 01:35 | 45.36009 | -122.73776 | 15008 ft | 398 kts | 148° |
| 2026-04-25 01:36 | 45.33633 | -122.71759 | 15010 ft | 398 kts | 148° |
| 2026-04-25 01:36 | 45.31288 | -122.69767 | 15009 ft | 398 kts | 148° |
| 2026-04-25 01:36 | 45.28918 | -122.67754 | 15009 ft | 398 kts | 148° |
| 2026-04-25 01:36 | 45.26543 | -122.65734 | 15009 ft | 397 kts | 148° |
| 2026-04-25 01:37 | 45.24169 | -122.63714 | 15013 ft | 397 kts | 148° |
| 2026-04-25 01:37 | 45.21802 | -122.61701 | 15011 ft | 397 kts | 148° |
| 2026-04-25 01:37 | 45.19430 | -122.59687 | 15009 ft | 397 kts | 148° |
| 2026-04-25 01:37 | 45.17055 | -122.57673 | 15009 ft | 397 kts | 148° |
| 2026-04-25 01:38 | 45.14688 | -122.55670 | 15018 ft | 397 kts | 148° |
| 2026-04-25 01:38 | 45.12508 | -122.53827 | 15010 ft | 397 kts | 148° |
| 2026-04-25 01:38 | 45.10139 | -122.51827 | 15009 ft | 397 kts | 149° |
| 2026-04-25 01:38 | 45.07760 | -122.49819 | 15009 ft | 397 kts | 149° |
| 2026-04-25 01:39 | 45.05398 | -122.47826 | 15001 ft | 396 kts | 149° |
| 2026-04-25 01:39 | 45.03023 | -122.45822 | 15000 ft | 396 kts | 149° |
| 2026-04-25 01:39 | 45.00654 | -122.43831 | 15000 ft | 396 kts | 149° |
| 2026-04-25 01:39 | 44.98284 | -122.41844 | 14999 ft | 396 kts | 149° |
| 2026-04-25 01:40 | 44.95905 | -122.39889 | 15000 ft | 397 kts | 152° |
| 2026-04-25 01:40 | 44.93382 | -122.38307 | 15004 ft | 396 kts | 161° |
| 2026-04-25 01:40 | 44.90766 | -122.37084 | 15010 ft | 396 kts | 162° |
| 2026-04-25 01:40 | 44.88150 | -122.35867 | 15012 ft | 396 kts | 162° |
| 2026-04-25 01:41 | 44.85538 | -122.34646 | 15018 ft | 395 kts | 162° |
| 2026-04-25 01:41 | 44.82929 | -122.33428 | 15013 ft | 395 kts | 162° |
| 2026-04-25 01:41 | 44.80316 | -122.32211 | 15010 ft | 395 kts | 162° |
| 2026-04-25 01:41 | 44.77740 | -122.31009 | 15003 ft | 395 kts | 163° |
| 2026-04-25 01:42 | 44.75136 | -122.29798 | 15019 ft | 395 kts | 163° |
| 2026-04-25 01:42 | 44.72527 | -122.28586 | 15001 ft | 394 kts | 163° |
| 2026-04-25 01:42 | 44.69917 | -122.27376 | 15012 ft | 395 kts | 163° |
| 2026-04-25 01:42 | 44.67311 | -122.26170 | 15011 ft | 394 kts | 162° |
| 2026-04-25 01:43 | 44.64707 | -122.24960 | 15010 ft | 394 kts | 163° |
| 2026-04-25 01:43 | 44.62100 | -122.23751 | 15012 ft | 394 kts | 163° |
| 2026-04-25 01:43 | 44.59498 | -122.22549 | 14996 ft | 393 kts | 163° |
| 2026-04-25 01:43 | 44.56898 | -122.21351 | 14996 ft | 394 kts | 163° |
| 2026-04-25 01:44 | 44.54292 | -122.20149 | 15009 ft | 394 kts | 163° |
| 2026-04-25 01:44 | 44.51691 | -122.18951 | 14998 ft | 393 kts | 163° |
| 2026-04-25 01:44 | 44.49090 | -122.17754 | 15001 ft | 393 kts | 163° |
| 2026-04-25 01:44 | 44.46493 | -122.16555 | 14999 ft | 393 kts | 163° |
| 2026-04-25 01:45 | 44.43892 | -122.15356 | 14999 ft | 394 kts | 163° |
| 2026-04-25 01:45 | 44.41277 | -122.14154 | 14999 ft | 394 kts | 163° |
| 2026-04-25 01:45 | 44.38676 | -122.12957 | 14996 ft | 393 kts | 163° |
| 2026-04-25 01:45 | 44.36077 | -122.11764 | 15001 ft | 393 kts | 163° |
| 2026-04-25 01:46 | 44.33478 | -122.10575 | 15005 ft | 393 kts | 163° |
| 2026-04-25 01:46 | 44.30880 | -122.09387 | 15000 ft | 393 kts | 163° |
| 2026-04-25 01:46 | 44.28265 | -122.08193 | 15484 ft | 397 kts | 164° |
| 2026-04-25 01:46 | 44.25658 | -122.07007 | 16128 ft | 400 kts | 163° |
| 2026-04-25 01:47 | 44.22961 | -122.05783 | 16610 ft | 405 kts | 163° |
| 2026-04-25 01:47 | 44.21182 | -122.04973 | 16952 ft | 408 kts | 163° |
| 2026-04-25 01:47 | 44.17583 | -122.03329 | 17637 ft | 413 kts | 163° |
| 2026-04-25 01:47 | 44.14835 | -122.02075 | 18165 ft | 418 kts | 163° |
| 2026-04-25 01:48 | 44.12049 | -122.00808 | 18709 ft | 422 kts | 164° |
| 2026-04-25 01:48 | 44.09238 | -121.99534 | 19278 ft | 426 kts | 164° |
| 2026-04-25 01:48 | 44.06412 | -121.98260 | 19835 ft | 429 kts | 164° |
| 2026-04-25 01:48 | 44.04485 | -121.97389 | 20204 ft | 432 kts | 164° |
| 2026-04-25 01:49 | 44.01617 | -121.96092 | 20745 ft | 435 kts | 164° |
| 2026-04-25 01:49 | 43.98774 | -121.94805 | 21256 ft | 437 kts | 164° |
| 2026-04-25 01:49 | 43.95869 | -121.93491 | 21750 ft | 440 kts | 164° |
| 2026-04-25 01:49 | 43.92947 | -121.92170 | 22232 ft | 443 kts | 164° |
| 2026-04-25 01:50 | 43.90006 | -121.90840 | 22688 ft | 445 kts | 164° |
| 2026-04-25 01:50 | 43.87014 | -121.89494 | 23125 ft | 448 kts | 165° |
| 2026-04-25 01:50 | 43.84024 | -121.88507 | 23536 ft | 448 kts | 173° |
| 2026-04-25 01:50 | 43.80899 | -121.87849 | 23975 ft | 449 kts | 174° |
| 2026-04-25 01:51 | 43.77852 | -121.87214 | 24366 ft | 451 kts | 174° |
| 2026-04-25 01:51 | 43.74689 | -121.86552 | 24730 ft | 454 kts | 174° |
| 2026-04-25 01:51 | 43.71598 | -121.85898 | 25073 ft | 457 kts | 174° |
| 2026-04-25 01:51 | 43.68442 | -121.85230 | 25420 ft | 460 kts | 174° |
| 2026-04-25 01:52 | 43.65231 | -121.84550 | 25757 ft | 462 kts | 174° |
| 2026-04-25 01:52 | 43.62044 | -121.83878 | 26078 ft | 465 kts | 174° |
| 2026-04-25 01:52 | 43.58833 | -121.83206 | 26410 ft | 467 kts | 174° |
| 2026-04-25 01:52 | 43.55615 | -121.82534 | 26749 ft | 469 kts | 174° |
| 2026-04-25 01:53 | 43.52375 | -121.81854 | 27058 ft | 471 kts | 174° |
| 2026-04-25 01:53 | 43.49128 | -121.81174 | 27339 ft | 474 kts | 175° |
| 2026-04-25 01:53 | 43.45861 | -121.80489 | 27617 ft | 476 kts | 175° |
| 2026-04-25 01:53 | 43.42621 | -121.79808 | 27908 ft | 478 kts | 175° |
| 2026-04-25 01:54 | 43.39279 | -121.79109 | 28186 ft | 480 kts | 175° |
| 2026-04-25 01:54 | 43.36013 | -121.78427 | 28463 ft | 482 kts | 175° |
| 2026-04-25 01:54 | 43.32692 | -121.77735 | 28729 ft | 483 kts | 175° |
| 2026-04-25 01:54 | 43.29363 | -121.77040 | 28982 ft | 485 kts | 175° |
| 2026-04-25 01:55 | 43.26022 | -121.76346 | 29218 ft | 486 kts | 175° |
| 2026-04-25 01:55 | 43.22676 | -121.75653 | 29454 ft | 487 kts | 175° |
| 2026-04-25 01:55 | 43.19319 | -121.74959 | 29720 ft | 487 kts | 175° |
| 2026-04-25 01:55 | 43.15975 | -121.74270 | 30053 ft | 486 kts | 175° |
| 2026-04-25 01:56 | 43.12634 | -121.73578 | 30382 ft | 484 kts | 175° |
| 2026-04-25 01:56 | 43.09313 | -121.72886 | 30703 ft | 482 kts | 175° |
| 2026-04-25 01:56 | 43.05993 | -121.72194 | 31012 ft | 481 kts | 175° |
| 2026-04-25 01:56 | 43.02687 | -121.71507 | 31322 ft | 480 kts | 175° |
| 2026-04-25 01:57 | 42.96104 | -121.70150 | 31940 ft | 477 kts | 175° |
| 2026-04-25 01:57 | 42.92830 | -121.69481 | 32255 ft | 475 kts | 175° |
| 2026-04-25 01:57 | 42.89566 | -121.68816 | 32551 ft | 474 kts | 175° |
| 2026-04-25 01:58 | 42.86316 | -121.68153 | 32858 ft | 472 kts | 175° |
| 2026-04-25 01:58 | 42.83030 | -121.67481 | 33172 ft | 470 kts | 175° |
| 2026-04-25 01:58 | 42.79844 | -121.66832 | 33465 ft | 469 kts | 175° |
| 2026-04-25 01:58 | 42.76625 | -121.66175 | 33743 ft | 467 kts | 175° |
| 2026-04-25 01:59 | 42.73415 | -121.65519 | 34031 ft | 466 kts | 176° |
| 2026-04-25 01:59 | 42.70265 | -121.64875 | 34333 ft | 464 kts | 176° |
| 2026-04-25 01:59 | 42.67029 | -121.64214 | 34611 ft | 463 kts | 176° |
| 2026-04-25 01:59 | 42.63846 | -121.63565 | 34860 ft | 463 kts | 175° |
| 2026-04-25 02:00 | 42.60660 | -121.62916 | 35097 ft | 462 kts | 175° |
| 2026-04-25 02:00 | 42.57477 | -121.62269 | 35324 ft | 462 kts | 175° |
| 2026-04-25 02:00 | 42.54299 | -121.61625 | 35547 ft | 462 kts | 175° |
| 2026-04-25 02:00 | 42.51117 | -121.60980 | 35743 ft | 461 kts | 175° |
| 2026-04-25 02:01 | 42.47945 | -121.60338 | 35941 ft | 461 kts | 175° |
| 2026-04-25 02:01 | 42.44779 | -121.59699 | 36134 ft | 461 kts | 175° |
| 2026-04-25 02:01 | 42.41598 | -121.59057 | 36309 ft | 461 kts | 175° |
| 2026-04-25 02:01 | 42.38430 | -121.58416 | 36477 ft | 461 kts | 175° |
| 2026-04-25 02:02 | 42.35251 | -121.57776 | 36645 ft | 461 kts | 175° |
| 2026-04-25 02:02 | 42.32084 | -121.57139 | 36831 ft | 460 kts | 175° |
| 2026-04-25 02:02 | 42.28921 | -121.56501 | 36900 ft | 459 kts | 175° |
| 2026-04-25 02:03 | 42.22620 | -121.55234 | 36920 ft | 456 kts | 175° |
| 2026-04-25 02:03 | 42.16361 | -121.53974 | 36918 ft | 454 kts | 175° |
| 2026-04-25 02:04 | 42.10111 | -121.52722 | 36921 ft | 454 kts | 175° |
| 2026-04-25 02:04 | 42.03856 | -121.51477 | 36917 ft | 454 kts | 175° |
| 2026-04-25 02:05 | 41.97606 | -121.50228 | 36914 ft | 454 kts | 175° |
| 2026-04-25 02:05 | 41.91358 | -121.48978 | 36921 ft | 453 kts | 175° |
| 2026-04-25 02:06 | 41.85120 | -121.47744 | 36924 ft | 452 kts | 175° |
| 2026-04-25 02:06 | 41.78902 | -121.46516 | 36914 ft | 452 kts | 175° |
| 2026-04-25 02:07 | 41.72672 | -121.45280 | 36922 ft | 452 kts | 175° |
| 2026-04-25 02:07 | 41.66454 | -121.44050 | 36921 ft | 452 kts | 175° |
| 2026-04-25 02:08 | 41.60234 | -121.42823 | 36911 ft | 452 kts | 176° |
| 2026-04-25 02:08 | 41.54012 | -121.41599 | 36911 ft | 452 kts | 176° |
| 2026-04-25 02:09 | 41.47780 | -121.40380 | 36918 ft | 452 kts | 176° |
| 2026-04-25 02:09 | 41.41544 | -121.39165 | 36913 ft | 452 kts | 176° |
| 2026-04-25 02:10 | 41.35318 | -121.37935 | 36928 ft | 452 kts | 176° |
| 2026-04-25 02:10 | 41.29103 | -121.36714 | 36914 ft | 452 kts | 176° |
| 2026-04-25 02:11 | 41.22882 | -121.35508 | 36926 ft | 451 kts | 176° |
| 2026-04-25 02:11 | 41.16653 | -121.34301 | 36916 ft | 452 kts | 176° |
| 2026-04-25 02:12 | 41.10436 | -121.33087 | 36930 ft | 452 kts | 176° |
| 2026-04-25 02:12 | 41.04215 | -121.31892 | 36930 ft | 451 kts | 176° |
| 2026-04-25 02:13 | 40.98003 | -121.30694 | 36930 ft | 451 kts | 176° |
| 2026-04-25 02:13 | 40.91796 | -121.29486 | 36929 ft | 451 kts | 176° |
| 2026-04-25 02:14 | 40.85595 | -121.28290 | 36930 ft | 450 kts | 176° |
| 2026-04-25 02:14 | 40.79394 | -121.27095 | 36933 ft | 450 kts | 176° |
| 2026-04-25 02:15 | 40.73197 | -121.25913 | 36931 ft | 450 kts | 176° |
| 2026-04-25 02:15 | 40.67007 | -121.24729 | 36936 ft | 449 kts | 176° |
| 2026-04-25 02:16 | 40.60811 | -121.23551 | 36943 ft | 449 kts | 176° |
| 2026-04-25 02:16 | 40.54626 | -121.22366 | 36948 ft | 449 kts | 176° |
| 2026-04-25 02:17 | 40.48455 | -121.21186 | 36951 ft | 449 kts | 176° |
| 2026-04-25 02:17 | 40.42271 | -121.20014 | 36954 ft | 448 kts | 176° |
| 2026-04-25 02:18 | 40.36137 | -121.18858 | 36957 ft | 448 kts | 176° |
| 2026-04-25 02:18 | 40.29966 | -121.17690 | 36961 ft | 448 kts | 176° |
| 2026-04-25 02:19 | 40.23790 | -121.16515 | 36963 ft | 448 kts | 176° |
| 2026-04-25 02:19 | 40.17626 | -121.15344 | 36967 ft | 448 kts | 176° |
| 2026-04-25 02:20 | 40.11451 | -121.14178 | 36966 ft | 448 kts | 176° |
| 2026-04-25 02:20 | 40.05284 | -121.13025 | 36964 ft | 448 kts | 176° |
| 2026-04-25 02:21 | 39.99127 | -121.11866 | 36960 ft | 447 kts | 176° |
| 2026-04-25 02:21 | 39.92970 | -121.10719 | 36956 ft | 447 kts | 176° |
| 2026-04-25 02:22 | 39.86807 | -121.09571 | 36956 ft | 447 kts | 176° |
| 2026-04-25 02:22 | 39.80657 | -121.08426 | 36954 ft | 447 kts | 176° |
| 2026-04-25 02:23 | 39.74505 | -121.07270 | 36955 ft | 447 kts | 176° |
| 2026-04-25 02:23 | 39.68352 | -121.06119 | 36954 ft | 446 kts | 176° |
| 2026-04-25 02:24 | 39.62206 | -121.04989 | 36952 ft | 446 kts | 177° |
| 2026-04-25 02:24 | 39.56061 | -121.03852 | 36950 ft | 446 kts | 177° |
| 2026-04-25 02:25 | 39.49911 | -121.02716 | 36945 ft | 446 kts | 177° |
| 2026-04-25 02:25 | 39.43772 | -121.01583 | 36947 ft | 446 kts | 177° |
| 2026-04-25 02:26 | 39.37632 | -121.00449 | 36949 ft | 446 kts | 177° |
| 2026-04-25 02:26 | 39.31489 | -120.99318 | 36955 ft | 446 kts | 177° |
| 2026-04-25 02:27 | 39.25346 | -120.98185 | 36963 ft | 446 kts | 177° |
| 2026-04-25 02:27 | 39.19212 | -120.97062 | 36964 ft | 445 kts | 177° |
| 2026-04-25 02:28 | 39.13078 | -120.95942 | 36964 ft | 445 kts | 177° |
| 2026-04-25 02:28 | 39.07971 | -120.95006 | 36964 ft | 446 kts | 177° |
| 2026-04-25 02:29 | 39.01832 | -120.93886 | 36962 ft | 446 kts | 177° |
| 2026-04-25 02:29 | 38.95687 | -120.92767 | 36963 ft | 446 kts | 177° |
| 2026-04-25 02:30 | 38.89535 | -120.91654 | 36960 ft | 446 kts | 177° |
| 2026-04-25 02:30 | 38.83384 | -120.90538 | 36960 ft | 446 kts | 177° |
| 2026-04-25 02:31 | 38.77233 | -120.89427 | 36959 ft | 446 kts | 177° |
| 2026-04-25 02:31 | 38.71083 | -120.88314 | 36957 ft | 446 kts | 177° |
| 2026-04-25 02:32 | 38.64941 | -120.87194 | 36955 ft | 446 kts | 177° |
| 2026-04-25 02:32 | 38.58804 | -120.86081 | 36954 ft | 446 kts | 177° |
| 2026-04-25 02:33 | 38.52661 | -120.84980 | 36953 ft | 446 kts | 177° |
| 2026-04-25 02:33 | 38.46511 | -120.83884 | 36952 ft | 446 kts | 178° |
| 2026-04-25 02:34 | 38.40359 | -120.82782 | 36951 ft | 446 kts | 178° |
| 2026-04-25 02:34 | 38.34207 | -120.81685 | 36950 ft | 446 kts | 178° |
| 2026-04-25 02:35 | 38.28053 | -120.80588 | 36951 ft | 446 kts | 178° |
| 2026-04-25 02:35 | 38.21941 | -120.79495 | 36952 ft | 446 kts | 178° |
| 2026-04-25 02:36 | 38.15794 | -120.78400 | 36953 ft | 446 kts | 178° |
| 2026-04-25 02:36 | 38.09637 | -120.77297 | 36953 ft | 446 kts | 178° |
| 2026-04-25 02:37 | 38.03485 | -120.76207 | 36958 ft | 446 kts | 178° |
| 2026-04-25 02:37 | 37.97337 | -120.75117 | 36953 ft | 446 kts | 178° |
| 2026-04-25 02:38 | 37.91199 | -120.74038 | 36947 ft | 445 kts | 179° |
| 2026-04-25 02:38 | 37.85058 | -120.72954 | 36940 ft | 445 kts | 179° |
| 2026-04-25 02:39 | 37.78918 | -120.71869 | 36932 ft | 445 kts | 179° |
| 2026-04-25 02:39 | 37.72784 | -120.70787 | 36928 ft | 445 kts | 179° |
| 2026-04-25 02:40 | 37.66680 | -120.69718 | 36918 ft | 445 kts | 179° |
| 2026-04-25 02:40 | 37.60546 | -120.68647 | 36924 ft | 445 kts | 179° |
| 2026-04-25 02:41 | 37.54410 | -120.67582 | 36909 ft | 444 kts | 179° |
| 2026-04-25 02:41 | 37.48294 | -120.66509 | 36916 ft | 444 kts | 179° |
| 2026-04-25 02:42 | 37.42179 | -120.65434 | 36912 ft | 444 kts | 179° |
| 2026-04-25 02:42 | 37.36054 | -120.64363 | 36909 ft | 444 kts | 179° |
| 2026-04-25 02:43 | 37.29958 | -120.62843 | 36901 ft | 450 kts | 172° |
| 2026-04-25 02:43 | 37.23890 | -120.60862 | 36907 ft | 451 kts | 173° |
| 2026-04-25 02:44 | 37.17811 | -120.58892 | 36903 ft | 451 kts | 173° |
| 2026-04-25 02:44 | 37.11741 | -120.56925 | 36909 ft | 451 kts | 173° |
| 2026-04-25 02:45 | 37.05662 | -120.54948 | 36915 ft | 451 kts | 173° |
| 2026-04-25 02:45 | 36.99589 | -120.52985 | 36910 ft | 451 kts | 173° |
| 2026-04-25 02:46 | 36.93511 | -120.51031 | 36914 ft | 451 kts | 173° |
| 2026-04-25 02:46 | 36.87437 | -120.49069 | 36916 ft | 451 kts | 173° |
| 2026-04-25 02:47 | 36.81364 | -120.47110 | 36926 ft | 451 kts | 174° |
| 2026-04-25 02:47 | 36.75290 | -120.45160 | 36921 ft | 451 kts | 174° |
| 2026-04-25 02:48 | 36.69223 | -120.43224 | 36927 ft | 450 kts | 174° |
| 2026-04-25 02:48 | 36.63168 | -120.41279 | 36920 ft | 449 kts | 174° |
| 2026-04-25 02:49 | 36.57115 | -120.39341 | 36914 ft | 449 kts | 174° |
| 2026-04-25 02:49 | 36.51071 | -120.37411 | 36910 ft | 449 kts | 175° |
| 2026-04-25 02:50 | 36.45022 | -120.35486 | 36898 ft | 448 kts | 175° |
| 2026-04-25 02:50 | 36.38983 | -120.33572 | 36905 ft | 448 kts | 175° |
| 2026-04-25 02:51 | 36.32931 | -120.31644 | 36895 ft | 449 kts | 175° |
| 2026-04-25 02:51 | 36.26894 | -120.29730 | 36898 ft | 449 kts | 175° |
| 2026-04-25 02:52 | 36.20832 | -120.27816 | 36898 ft | 449 kts | 175° |
| 2026-04-25 02:52 | 36.14782 | -120.25904 | 36901 ft | 449 kts | 175° |
| 2026-04-25 02:53 | 36.08727 | -120.23992 | 36911 ft | 449 kts | 175° |
| 2026-04-25 02:53 | 36.02675 | -120.22076 | 36903 ft | 449 kts | 175° |
| 2026-04-25 02:54 | 35.96624 | -120.20165 | 36913 ft | 448 kts | 176° |
| 2026-04-25 02:54 | 35.90583 | -120.18273 | 36916 ft | 448 kts | 176° |
| 2026-04-25 02:55 | 35.84542 | -120.16394 | 36918 ft | 448 kts | 176° |
| 2026-04-25 02:55 | 35.78503 | -120.14508 | 36923 ft | 448 kts | 176° |
| 2026-04-25 02:56 | 35.72467 | -120.12615 | 36932 ft | 448 kts | 176° |
| 2026-04-25 02:56 | 35.66451 | -120.10422 | 36891 ft | 460 kts | 166° |
| 2026-04-25 02:56 | 35.63586 | -120.08553 | 36642 ft | 472 kts | 157° |
| 2026-04-25 02:57 | 35.60807 | -120.06414 | 36389 ft | 471 kts | 158° |
| 2026-04-25 02:57 | 35.58021 | -120.04284 | 36143 ft | 471 kts | 158° |
| 2026-04-25 02:57 | 35.55225 | -120.02167 | 35894 ft | 472 kts | 158° |
| 2026-04-25 02:57 | 35.52418 | -120.00058 | 35646 ft | 475 kts | 158° |
| 2026-04-25 02:58 | 35.49587 | -119.97943 | 35394 ft | 478 kts | 159° |
| 2026-04-25 02:58 | 35.46750 | -119.95826 | 35141 ft | 479 kts | 159° |
| 2026-04-25 02:58 | 35.43897 | -119.93691 | 34894 ft | 480 kts | 159° |
| 2026-04-25 02:58 | 35.41049 | -119.91554 | 34644 ft | 480 kts | 159° |
| 2026-04-25 02:59 | 35.38204 | -119.89419 | 34395 ft | 480 kts | 159° |
| 2026-04-25 02:59 | 35.35354 | -119.87282 | 34144 ft | 480 kts | 159° |
| 2026-04-25 02:59 | 35.32501 | -119.85141 | 33901 ft | 481 kts | 159° |
| 2026-04-25 02:59 | 35.29656 | -119.83004 | 33646 ft | 481 kts | 158° |
| 2026-04-25 03:00 | 35.26907 | -119.80593 | 33385 ft | 489 kts | 152° |
| 2026-04-25 03:00 | 35.24197 | -119.78062 | 33144 ft | 490 kts | 152° |
| 2026-04-25 03:00 | 35.21483 | -119.75521 | 32893 ft | 491 kts | 152° |
| 2026-04-25 03:00 | 35.18779 | -119.72990 | 32644 ft | 491 kts | 152° |
| 2026-04-25 03:01 | 35.16062 | -119.70449 | 32392 ft | 492 kts | 152° |
| 2026-04-25 03:01 | 35.13338 | -119.67905 | 32144 ft | 493 kts | 152° |
| 2026-04-25 03:01 | 35.10611 | -119.65359 | 31891 ft | 493 kts | 152° |
| 2026-04-25 03:01 | 35.07878 | -119.62812 | 31640 ft | 494 kts | 152° |
| 2026-04-25 03:02 | 35.05151 | -119.60274 | 31390 ft | 494 kts | 151° |
| 2026-04-25 03:02 | 35.02418 | -119.57736 | 31134 ft | 494 kts | 151° |
| 2026-04-25 03:02 | 34.99679 | -119.55196 | 30881 ft | 495 kts | 151° |
| 2026-04-25 03:02 | 34.96935 | -119.52655 | 30636 ft | 496 kts | 151° |
| 2026-04-25 03:03 | 34.94191 | -119.50113 | 29689 ft | 498 kts | 151° |
| 2026-04-25 03:03 | 34.91433 | -119.47565 | 28871 ft | 496 kts | 150° |
| 2026-04-25 03:03 | 34.88699 | -119.45053 | 28279 ft | 488 kts | 151° |
| 2026-04-25 03:03 | 34.85989 | -119.42603 | 27672 ft | 482 kts | 151° |
| 2026-04-25 03:04 | 34.83301 | -119.40202 | 27126 ft | 477 kts | 151° |
| 2026-04-25 03:04 | 34.80629 | -119.37832 | 26908 ft | 475 kts | 151° |
| 2026-04-25 03:04 | 34.77957 | -119.35471 | 26929 ft | 473 kts | 151° |
| 2026-04-25 03:05 | 34.72786 | -119.30884 | 26938 ft | 453 kts | 152° |
| 2026-04-25 03:05 | 34.70233 | -119.28648 | 26973 ft | 451 kts | 152° |
| 2026-04-25 03:05 | 34.67686 | -119.26435 | 26968 ft | 451 kts | 152° |
| 2026-04-25 03:05 | 34.65132 | -119.24222 | 26972 ft | 451 kts | 152° |
| 2026-04-25 03:06 | 34.62577 | -119.22014 | 26969 ft | 451 kts | 152° |
| 2026-04-25 03:06 | 34.60023 | -119.19817 | 26964 ft | 450 kts | 152° |
| 2026-04-25 03:06 | 34.57463 | -119.17615 | 26968 ft | 450 kts | 152° |
| 2026-04-25 03:06 | 34.54904 | -119.15408 | 26969 ft | 451 kts | 152° |
| 2026-04-25 03:07 | 34.52361 | -119.13182 | 26965 ft | 452 kts | 152° |
| 2026-04-25 03:07 | 34.49825 | -119.10937 | 26635 ft | 451 kts | 152° |
| 2026-04-25 03:07 | 34.47300 | -119.08688 | 26001 ft | 450 kts | 151° |
| 2026-04-25 03:07 | 34.44799 | -119.06451 | 25242 ft | 443 kts | 151° |
| 2026-04-25 03:08 | 34.42328 | -119.04248 | 24252 ft | 438 kts | 151° |
| 2026-04-25 03:08 | 34.40702 | -119.02816 | 23606 ft | 434 kts | 151° |
| 2026-04-25 03:08 | 34.38265 | -119.00698 | 22678 ft | 428 kts | 152° |
| 2026-04-25 03:08 | 34.35859 | -118.98628 | 21801 ft | 421 kts | 151° |
| 2026-04-25 03:09 | 34.33486 | -118.96589 | 20954 ft | 415 kts | 151° |
| 2026-04-25 03:09 | 34.31175 | -118.94551 | 20088 ft | 409 kts | 150° |
| 2026-04-25 03:09 | 34.28911 | -118.92507 | 19235 ft | 403 kts | 149° |
| 2026-04-25 03:09 | 34.26693 | -118.90479 | 18397 ft | 396 kts | 149° |
| 2026-04-25 03:10 | 34.24533 | -118.88493 | 17554 ft | 390 kts | 148° |
| 2026-04-25 03:10 | 34.22370 | -118.86493 | 16747 ft | 384 kts | 148° |
| 2026-04-25 03:10 | 34.20313 | -118.84583 | 16520 ft | 361 kts | 148° |
| 2026-04-25 03:10 | 34.18366 | -118.82772 | 16147 ft | 347 kts | 148° |
| 2026-04-25 03:11 | 34.16472 | -118.81018 | 15543 ft | 341 kts | 147° |
| 2026-04-25 03:11 | 34.14655 | -118.79205 | 14928 ft | 338 kts | 144° |
| 2026-04-25 03:11 | 34.12895 | -118.77318 | 14554 ft | 336 kts | 142° |
| 2026-04-25 03:11 | 34.11193 | -118.75430 | 13960 ft | 331 kts | 142° |
| 2026-04-25 03:12 | 34.09511 | -118.73551 | 13338 ft | 327 kts | 141° |
| 2026-04-25 03:12 | 34.07848 | -118.71705 | 12738 ft | 324 kts | 141° |
| 2026-04-25 03:12 | 34.06198 | -118.69886 | 12266 ft | 316 kts | 142° |
| 2026-04-25 03:12 | 34.04622 | -118.68103 | 11763 ft | 309 kts | 135° |
| 2026-04-25 03:13 | 34.03405 | -118.65981 | 11196 ft | 308 kts | 118° |
| 2026-04-25 03:13 | 34.02714 | -118.63561 | 10615 ft | 306 kts | 101° |
| 2026-04-25 03:13 | 34.02452 | -118.61032 | 10010 ft | 302 kts | 97° |
| 2026-04-25 03:13 | 34.02221 | -118.58524 | 9429 ft | 297 kts | 97° |
| 2026-04-25 03:14 | 34.01993 | -118.56074 | 8883 ft | 291 kts | 97° |
| 2026-04-25 03:14 | 34.01768 | -118.53680 | 8527 ft | 289 kts | 97° |
| 2026-04-25 03:14 | 34.01538 | -118.51260 | 7984 ft | 294 kts | 97° |
| 2026-04-25 03:14 | 34.01306 | -118.48809 | 7711 ft | 287 kts | 97° |
| 2026-04-25 03:15 | 34.01092 | -118.46427 | 7568 ft | 276 kts | 92° |
| 2026-04-25 03:15 | 34.01268 | -118.44179 | 7317 ft | 269 kts | 78° |
| 2026-04-25 03:15 | 34.01650 | -118.41979 | 7013 ft | 265 kts | 78° |
| 2026-04-25 03:15 | 34.02020 | -118.39844 | 6696 ft | 262 kts | 78° |
| 2026-04-25 03:16 | 34.02389 | -118.37720 | 6304 ft | 253 kts | 78° |
| 2026-04-25 03:16 | 34.02741 | -118.35666 | 6031 ft | 240 kts | 80° |
| 2026-04-25 03:16 | 34.02985 | -118.33763 | 5938 ft | 220 kts | 83° |
| 2026-04-25 03:16 | 34.03166 | -118.31975 | 5972 ft | 211 kts | 83° |
| 2026-04-25 03:17 | 34.03333 | -118.30236 | 5686 ft | 207 kts | 83° |
| 2026-04-25 03:17 | 34.03292 | -118.28573 | 5585 ft | 193 kts | 105° |
| 2026-04-25 03:17 | 34.02841 | -118.27122 | 5456 ft | 178 kts | 112° |
| 2026-04-25 03:17 | 34.02414 | -118.25771 | 5309 ft | 168 kts | 111° |
| 2026-04-25 03:18 | 34.02018 | -118.24496 | 5182 ft | 157 kts | 111° |
| 2026-04-25 03:18 | 34.01637 | -118.23276 | 4957 ft | 154 kts | 111° |
| 2026-04-25 03:18 | 34.01255 | -118.22056 | 4546 ft | 164 kts | 111° |
| 2026-04-25 03:18 | 34.00845 | -118.20738 | 4164 ft | 166 kts | 111° |
| 2026-04-25 03:19 | 34.00436 | -118.19419 | 3726 ft | 170 kts | 111° |
| 2026-04-25 03:19 | 34.00030 | -118.18132 | 3549 ft | 157 kts | 113° |
| 2026-04-25 03:19 | 33.99510 | -118.17029 | 3389 ft | 145 kts | 127° |
| 2026-04-25 03:19 | 33.98830 | -118.16179 | 3176 ft | 140 kts | 144° |
| 2026-04-25 03:20 | 33.97911 | -118.15787 | 2870 ft | 141 kts | 176° |
| 2026-04-25 03:20 | 33.96955 | -118.15993 | 2573 ft | 142 kts | 207° |
| 2026-04-25 03:20 | 33.96260 | -118.16812 | 2531 ft | 143 kts | 244° |
| 2026-04-25 03:20 | 33.96129 | -118.17990 | 2684 ft | 146 kts | 279° |
| 2026-04-25 03:21 | 33.96285 | -118.19202 | 2857 ft | 150 kts | 275° |
| 2026-04-25 03:21 | 33.96399 | -118.20415 | 2820 ft | 146 kts | 274° |
| 2026-04-25 03:21 | 33.96463 | -118.21655 | 2896 ft | 147 kts | 274° |
| 2026-04-25 03:21 | 33.96503 | -118.22868 | 2926 ft | 149 kts | 275° |
| 2026-04-25 03:22 | 33.96629 | -118.24101 | 2738 ft | 147 kts | 272° |
| 2026-04-25 03:22 | 33.96620 | -118.25337 | 2549 ft | 145 kts | 267° |
| 2026-04-25 03:22 | 33.96552 | -118.26533 | 2361 ft | 144 kts | 265° |
| 2026-04-25 03:22 | 33.96453 | -118.27745 | 2165 ft | 143 kts | 264° |
| 2026-04-25 03:23 | 33.96345 | -118.28929 | 1983 ft | 141 kts | 263° |
| 2026-04-25 03:23 | 33.96231 | -118.30099 | 1795 ft | 141 kts | 263° |
| 2026-04-25 03:23 | 33.96115 | -118.31269 | 1618 ft | 140 kts | 263° |
| 2026-04-25 03:23 | 33.96001 | -118.32407 | 1428 ft | 138 kts | 263° |
| 2026-04-25 03:24 | 33.95884 | -118.33566 | 1243 ft | 137 kts | 263° |
| 2026-04-25 03:24 | 33.95770 | -118.34688 | 1064 ft | 137 kts | 262° |
| 2026-04-25 03:24 | 33.95653 | -118.35840 | 878 ft | 137 kts | 262° |
| 2026-04-25 03:24 | 33.95538 | -118.36970 | 699 ft | 136 kts | 263° |
| 2026-04-25 03:25 | 33.95424 | -118.38095 | 519 ft | 136 kts | 262° |
| 2026-04-25 03:25 | 33.95307 | -118.39242 | 332 ft | 137 kts | 262° |
| 2026-04-25 03:25 | 33.95190 | -118.40363 | 161 ft | 136 kts | 262° |
| 2026-04-25 03:25 | 33.95088 | -118.41412 | 127 ft | 112 kts | 263° |
| 2026-04-25 03:26 | 33.95019 | -118.42077 | 122 ft | 58 kts | 263° |
| 2026-04-25 03:26 | 33.94969 | -118.42471 | 123 ft | 24 kts | 251° |
| 2026-04-25 03:26 | 33.94900 | -118.42608 | 123 ft | 13 kts | 232° |
| 2026-04-25 03:26 | 33.94853 | -118.42675 | 126 ft | 0 kts | 225° |
| 2026-04-25 03:27 | 33.94832 | -118.42700 | 122 ft | 15 kts | 223° |
| 2026-04-25 03:27 | 33.94718 | -118.42773 | 125 ft | 17 kts | 193° |
| 2026-04-25 03:27 | 33.94639 | -118.42778 | 131 ft | 0 kts | 168° |
| 2026-04-25 03:30 | 33.94638 | -118.42777 | 126 ft | 1 kts | 162° |
| 2026-04-25 03:30 | 33.94636 | -118.42686 | 124 ft | 15 kts | 82° |
| 2026-04-25 03:30 | 33.94650 | -118.42562 | 126 ft | 14 kts | 82° |
| 2026-04-25 03:30 | 33.94662 | -118.42451 | 126 ft | 13 kts | 82° |
| 2026-04-25 03:31 | 33.94673 | -118.42351 | 124 ft | 11 kts | 82° |
| 2026-04-25 03:31 | 33.94683 | -118.42260 | 122 ft | 10 kts | 82° |
| 2026-04-25 03:31 | 33.94693 | -118.42170 | 123 ft | 15 kts | 83° |
| 2026-04-25 03:31 | 33.94705 | -118.42038 | 122 ft | 16 kts | 83° |
| 2026-04-25 03:32 | 33.94717 | -118.41917 | 124 ft | 14 kts | 83° |
| 2026-04-25 03:32 | 33.94727 | -118.41806 | 121 ft | 13 kts | 83° |
| 2026-04-25 03:32 | 33.94737 | -118.41705 | 126 ft | 11 kts | 83° |
| 2026-04-25 03:32 | 33.94746 | -118.41615 | 120 ft | 10 kts | 82° |
| 2026-04-25 03:33 | 33.94755 | -118.41536 | 122 ft | 9 kts | 82° |
| 2026-04-25 03:33 | 33.94759 | -118.41509 | 121 ft | 3 kts | 82° |
| 2026-04-25 03:33 | 33.94761 | -118.41489 | 124 ft | 2 kts | 82° |
| 2026-04-25 03:33 | 33.94775 | -118.41420 | 126 ft | 17 kts | 73° |
| 2026-04-25 03:34 | 33.94797 | -118.41278 | 126 ft | 18 kts | 83° |
| 2026-04-25 03:34 | 33.94812 | -118.41129 | 123 ft | 18 kts | 83° |
| 2026-04-25 03:34 | 33.94827 | -118.40989 | 124 ft | 13 kts | 83° |
| 2026-04-25 03:34 | 33.94810 | -118.40895 | 123 ft | 11 kts | 140° |
| 2026-04-25 03:35 | 33.94761 | -118.40836 | 122 ft | 9 kts | 99° |
| 2026-04-25 03:35 | 33.94766 | -118.40763 | 124 ft | 8 kts | 83° |
| 2026-04-25 03:35 | 33.94738 | -118.40729 | 123 ft | 6 kts | 189° |
| 2026-04-25 03:35 | 33.94733 | -118.40732 | 126 ft | 0 kts | 201° |
| 2026-04-25 03:37 | 33.94714 | -118.40715 | 124 ft | 0 kts | 214° |